Latest Coastal Weather Observations for Cape Borda

IDT60701

Issued at 5:41 am EST Wednesday 25 May 2016 (issued every 10 minutes, with the page automatically refreshed every 10 minutes)

About coastal observations | Map of coastal stations | Coastal observations for TAS | Marine services | Other Formats
Station Details ID: 022823 Name: CAPE BORDA Lat: -35.75 Lon: 136.60 Height: 158.0 m
Data from the previous 72 hours. | See also: Recent months at Cape Borda
Date/Time
EST
Temp

°C
Wind Pressure Rain
since 9am
mm
Weather Cloud Vis
km
Sea
Height
m
Swell
Dir
 
Speed
knots
Gust
knots
hPa Trend Height
m
Period
s
Dir
25/05:30am 15.3 N 14 20 1008.7 - 0.0 - - - - - - -
25/05:00am 15.5 N 17 25 1008.7 - 0.0 - - - - - - -
25/04:40am 15.9 N 19 29 1008.9 - 0.0 - - - - - - -
25/04:30am 15.8 N 19 27 1008.8 - 0.0 - - - - - - -
25/04:18am 15.9 N 16 28 1009.1 - 0.0 - - - - - - -
25/04:00am 15.7 N 16 23 1009.4 - 0.0 - - - - - - -
25/03:42am 15.5 N 16 26 1009.8 - 0.0 - - - - - - -
25/03:30am 15.7 N 17 24 1009.8 - 0.0 - - - - - - -
25/03:00am 15.3 N 15 23 1009.9 - 0.0 - - - - - - -
25/02:30am 15.4 N 19 27 1009.4 - 0.0 - - - - - - -
25/02:00am 15.3 N 19 29 1009.8 - 0.0 - - - - - - -
25/01:30am 15.7 N 18 28 1010.3 - 0.0 - - - - - - -
25/01:02am 16.5 N 17 30 1011.0 - 0.0 - - - - - - -
25/01:00am 16.3 N 13 22 1011.1 - 0.0 - - - - - - -
25/12:30am 16.8 NNE 13 20 1011.2 - 0.0 - - - - - - -
25/12:00am 17.0 N 13 19 1012.1 - 0.0 - - - - - - -
 
Date/Time
EST
Temp

°C
Wind Pressure Rain
since 9am
mm
Weather Cloud Vis
km
Sea
Height
m
Swell
Dir
 
Speed
knots
Gust
knots
hPa Trend Height
m
Period
s
Dir
24/11:30pm 16.8 NNE 13 19 1011.8 - 0.0 - - - - - - -
24/11:00pm 16.6 NNE 13 19 1012.0 - 0.0 - - - - - - -
24/10:30pm 15.9 NE 13 16 1012.3 - 0.0 - - - - - - -
24/10:00pm 15.7 NNE 13 17 1012.9 - 0.0 - - - - - - -
24/09:30pm 15.8 NNE 14 20 1013.0 - 0.0 - - - - - - -
24/09:00pm 15.7 NNE 13 18 1013.4 - 0.0 - - - - - - -
24/08:30pm 15.6 NE 13 19 1013.6 - 0.0 - - - - - - -
24/08:00pm 15.6 NNE 15 20 1013.7 - 0.0 - - - - - - -
24/07:30pm 15.6 NNE 16 22 1013.7 - 0.0 - - - - - - -
24/07:00pm 15.5 NNE 14 21 1014.0 - 0.0 - - - - - - -
24/06:30pm 15.4 NNE 14 20 1014.1 - 0.0 - - - - - - -
24/06:00pm 15.3 NNE 14 19 1014.4 - 0.0 - - - - - - -
24/05:30pm 15.5 N 12 19 1014.9 - 0.0 - - - - - - -
24/05:00pm 15.5 N 14 19 1015.3 - 0.0 - - - - - - -
24/04:30pm 15.7 N 15 21 1015.5 - 0.0 - - - - - - -
24/04:00pm 16.6 N 16 22 1015.5 - 0.0 - - - - - - -
24/03:30pm 16.5 N 15 23 1015.7 F 0.0 Fine Partly cloudy 18 1 5.9 8 SW
24/03:00pm 16.5 N 16 22 1016.3 - 0.0 - - - - - - -
24/02:30pm 16.7 N 15 21 1016.6 - 0.0 - - - - - - -
24/02:00pm 17.2 N 13 17 1017.1 - 0.0 - - - - - - -
24/01:30pm 17.5 N 13 20 1017.6 - 0.0 - - - - - - -
24/01:00pm 16.9 N 17 21 1018.2 - 0.0 - - - - - - -
24/12:30pm 17.0 N 14 19 1019.0 - 0.0 - - - - - - -
24/12:00pm 16.9 N 13 21 1019.5 - 0.0 - - - - - - -
24/11:30am 17.1 N 12 19 1019.9 - 0.0 - - - - - - -
24/11:00am 16.7 N 11 17 1020.4 - 0.0 - - - - - - -
24/10:30am 16.4 N 11 14 1020.9 - 0.0 - - - - - - -
24/10:00am 15.6 N 10 15 1021.2 - 0.0 - - - - - - -
24/09:30am 15.2 NNW 8 12 1021.3 F 0.2 Haze Partly cloudy 18 <0.5 6.0 9 SW
24/09:00am 14.9 NNW 9 13 1021.5 - 0.2 - - - - - - -
24/08:30am 14.2 N 9 14 1021.3 - 0.2 - - - - - - -
24/08:00am 13.7 NNW 8 11 1021.4 - 0.2 - - - - - - -
24/07:30am 13.8 NW 7 10 1021.6 - 0.2 - - - - - - -
24/07:00am 14.0 NNW 7 10 1021.2 - 0.2 - - - - - - -
24/06:30am 14.1 NNW 8 11 1021.0 - 0.2 - - - - - - -
24/06:00am 14.2 NNW 9 13 1020.8 - 0.2 - - - - - - -
24/05:30am 14.1 NNW 8 11 1020.8 - 0.2 - - - - - - -
24/05:00am 14.5 NNW 9 12 1020.8 - 0.2 - - - - - - -
24/04:30am 14.3 NNW 8 11 1020.6 - 0.2 - - - - - - -
24/04:00am 14.4 NNW 9 12 1020.9 - 0.2 - - - - - - -
24/03:30am 14.5 NNW 7 9 1020.8 - 0.2 - - - - - - -
24/03:00am 14.5 NNW 6 9 1021.0 - 0.2 - - - - - - -
24/02:30am 14.4 NNW 6 8 1020.9 - 0.2 - - - - - - -
24/02:00am 14.4 NNW 6 8 1021.1 - 0.2 - - - - - - -
24/01:30am 14.4 NW 6 8 1021.5 - 0.2 - - - - - - -
24/01:00am 14.4 NW 6 8 1021.9 - 0.2 - - - - - - -
24/12:30am 14.9 NW 7 11 1022.3 - 0.2 - - - - - - -
24/12:00am 14.9 NW 8 12 1022.8 - 0.2 - - - - - - -
 
Date/Time
EST
Temp

°C
Wind Pressure Rain
since 9am
mm
Weather Cloud Vis
km
Sea
Height
m
Swell
Dir
 
Speed
knots
Gust
knots
hPa Trend Height
m
Period
s
Dir
23/11:30pm 14.6 WNW 7 11 1022.9 - 0.2 - - - - - - -
23/11:00pm 14.7 WNW 9 11 1022.9 - 0.2 - - - - - - -
23/10:30pm 14.6 WNW 9 13 1023.1 - 0.2 - - - - - - -
23/10:00pm 14.7 WNW 10 12 1023.0 - 0.2 - - - - - - -
23/09:30pm 14.9 NW 7 15 1023.0 - 0.2 - - - - - - -
23/09:00pm 15.0 WNW 9 13 1023.2 - 0.2 - - - - - - -
23/08:30pm 15.0 W 9 11 1023.4 - 0.2 - - - - - - -
23/08:00pm 15.0 W 10 15 1023.3 - 0.2 - - - - - - -
23/07:30pm 15.1 W 10 13 1023.1 - 0.2 - - - - - - -
23/07:00pm 15.1 W 10 13 1022.9 - 0.2 - - - - - - -
23/06:30pm 14.9 W 9 13 1022.6 - 0.2 - - - - - - -
23/06:00pm 14.6 W 8 11 1022.2 - 0.2 - - - - - - -
23/05:30pm 15.2 W 9 12 1022.2 - 0.2 - - - - - - -
23/05:00pm 15.7 W 10 15 1022.2 - 0.2 - - - - - - -
23/04:30pm 16.0 W 12 18 1022.0 - 0.2 - - - - - - -
23/04:00pm 16.4 W 12 16 1021.9 - 0.2 - - - - - - -
23/03:30pm 16.9 W 12 16 1021.5 R 0.2 Fine Partly cloudy 18 1 8.4 10 SW
23/03:00pm 16.8 W 13 18 1021.4 - 0.2 - - - - - - -
23/02:30pm 17.1 W 13 17 1021.3 - 0.2 - - - - - - -
23/02:00pm 16.8 W 13 19 1021.4 - 0.2 - - - - - - -
23/01:30pm 16.9 W 14 19 1021.5 - 0.2 - - - - - - -
23/01:00pm 17.0 W 14 19 1021.5 - 0.2 - - - - - - -
23/12:30pm 16.7 W 14 18 1021.4 - 0.2 - - - - - - -
23/12:00pm 16.6 W 15 21 1022.0 - 0.0 - - - - - - -
23/11:30am 16.4 W 15 22 1022.0 - 0.0 - - - - - - -
23/11:00am 16.2 W 16 25 1021.9 - 0.0 - - - - - - -
23/10:30am 15.6 W 16 24 1021.8 - 0.0 - - - - - - -
23/10:00am 15.5 W 17 23 1021.6 - 0.0 - - - - - - -
23/09:30am 15.6 W 17 25 1021.3 R 7.2 Fine Partly cloudy 18 2 8.1 9 SW
23/09:18am 15.2 W 16 26 1021.3 - 7.2 - - - - - - -
23/09:00am 14.9 W 17 24 1021.2 - 7.2 - - - - - - -
23/08:30am 14.7 W 17 26 1020.9 - 7.2 - - - - - - -
23/08:19am 14.6 W 17 27 1020.6 - 7.2 - - - - - - -
23/08:00am 14.6 W 17 25 1020.5 - 7.2 - - - - - - -
23/07:30am 14.3 W 16 22 1020.1 - 7.2 - - - - - - -
23/07:00am 14.3 W 19 25 1019.6 - 7.2 - - - - - - -
23/06:30am 14.3 W 20 27 1019.5 - 7.2 - - - - - - -
23/06:00am 14.1 W 15 21 1019.4 - 7.2 - - - - - - -
23/05:30am 13.8 W 15 21 1019.1 - 7.2 - - - - - - -
23/05:00am 13.5 W 15 23 1018.8 - 7.2 - - - - - - -
23/04:30am 13.7 W 17 27 1018.6 - 7.2 - - - - - - -
23/04:11am 13.6 W 17 27 1018.4 - 7.2 - - - - - - -
23/04:00am 13.6 W 19 26 1018.3 - 7.2 - - - - - - -
23/03:30am 13.7 W 19 30 1018.0 - 7.2 - - - - - - -
23/03:19am 13.5 W 19 29 1017.9 - 7.2 - - - - - - -
23/03:00am 13.4 W 20 27 1017.7 - 7.2 - - - - - - -
23/02:30am 13.4 W 19 33 1017.4 - 7.2 - - - - - - -
23/02:27am 13.2 W 18 28 1017.3 - 7.2 - - - - - - -
23/02:00am 13.5 W 22 29 1017.0 - 7.2 - - - - - - -
23/01:31am 13.2 W 19 29 1016.7 - 7.2 - - - - - - -
23/01:30am 13.3 W 20 29 1016.6 - 7.2 - - - - - - -
23/01:00am 13.3 W 23 33 1016.6 - 7.2 - - - - - - -
23/12:43am 13.2 W 21 32 1016.4 - 7.2 - - - - - - -
23/12:30am 13.0 W 22 30 1016.1 - 7.2 - - - - - - -
23/12:08am 12.9 W 23 33 1015.9 - 7.2 - - - - - - -
23/12:00am 12.8 W 24 31 1015.8 - 7.2 - - - - - - -
 
Date/Time
EST
Temp

°C
Wind Pressure Rain
since 9am
mm
Weather Cloud Vis
km
Sea
Height
m
Swell
Dir
 
Speed
knots
Gust
knots
hPa Trend Height
m
Period
s
Dir
22/11:30pm 12.6 W 22 33 1015.2 - 7.2 - - - - - - -
22/11:03pm 13.2 W 25 35 1014.7 - 7.2 - - - - - - -
22/11:00pm 13.4 W 25 34 1014.5 - 7.2 - - - - - - -
22/10:30pm 13.4 W 26 40 1013.9 - 7.2 - - - - - - -
22/10:00pm 13.4 W 28 42 1013.2 - 7.2 - - - - - - -
22/09:30pm 13.2 W 27 37 1012.8 - 7.2 - - - - - - -
22/09:00pm 11.5 W 24 34 1012.6 - 7.2 - - - - - - -
22/08:47pm 12.4 W 23 41 1012.5 - 5.8 - - - - - - -
22/08:30pm 14.2 W 21 31 1011.8 - 5.8 - - - - - - -
22/08:25pm 14.0 W 20 30 1011.7 - 5.8 - - - - - - -
22/08:07pm 13.5 W 21 29 1011.6 - 5.8 - - - - - - -
22/08:00pm 14.6 WNW 23 37 1011.2 - 5.8 - - - - - - -
22/07:37pm 14.3 WNW 21 32 1010.9 - 5.8 - - - - - - -
22/07:30pm 14.2 WNW 21 30 1010.9 - 5.8 - - - - - - -
22/07:00pm 13.9 WNW 21 28 1010.6 - 5.8 - - - - - - -
22/06:30pm 14.0 W 21 29 1010.1 - 5.8 - - - - - - -
22/06:17pm 13.9 W 19 27 1010.0 - 5.8 - - - - - - -
22/06:15pm 14.1 WNW 21 31 1010.0 - 5.8 - - - - - - -
22/06:00pm 14.4 WNW 22 31 1009.5 - 5.8 - - - - - - -
22/05:30pm 13.9 WNW 24 34 1009.2 - 5.8 - - - - - - -
22/05:00pm 14.5 W 22 32 1008.6 - 5.8 - - - - - - -
22/04:38pm 15.7 WNW 23 35 1008.0 - 5.8 - - - - - - -
22/04:30pm 15.9 WNW 23 32 1008.0 - 5.8 - - - - - - -
22/04:00pm 15.8 W 24 34 1007.5 - 5.8 - - - - - - -
22/03:41pm 15.4 WNW 21 32 1006.9 - 5.6 - - - - - - -
22/03:30pm 15.3 WNW 20 29 1006.9 R 5.4 Distant precip. Cloudy 10 2 4.0 6 SW
22/03:13pm 14.9 WNW 17 28 1006.6 - 5.4 - - - - - - -
22/03:00pm 14.6 WNW 18 25 1006.7 - 5.4 - - - - - - -
22/02:31pm 14.0 W 26 37 1006.5 - 5.2 - - - - - - -
22/02:30pm 14.5 W 25 33 1006.5 - 5.0 - - - - - - -
22/02:23pm 15.2 W 25 31 1006.1 - 4.8 - - - - - - -
22/02:16pm 16.2 NW 22 34 1005.9 - 4.8 - - - - - - -
22/02:00pm 16.3 NW 20 26 1005.9 - 4.8 - - - - - - -
22/01:30pm 16.0 NW 18 25 1005.7 - 4.8 - - - - - - -
22/01:00pm 15.3 NW 13 19 1005.9 - 4.8 - - - - - - -
22/12:30pm 14.4 NW 14 20 1006.0 - 4.8 - - - - - - -
22/12:00pm 15.5 NW 16 22 1006.2 - 4.8 - - - - - - -
22/11:31am 15.6 NNW 20 30 1005.9 - 3.6 - - - - - - -
22/11:30am 15.5 NNW 21 30 1006.0 - 3.6 - - - - - - -
22/11:00am 15.4 N 18 26 1005.5 - 2.8 - - - - - - -
22/10:35am 15.4 NNW 17 27 1005.7 - 2.6 - - - - - - -
22/10:30am 15.4 NNW 17 25 1005.8 - 2.4 - - - - - - -
22/10:15am 15.4 NNW 17 27 1005.9 - 2.2 - - - - - - -
22/10:00am 15.2 NNW 17 24 1005.7 - 1.6 - - - - - - -
22/09:30am 15.2 NNW 21 29 1005.8 R 1.4 Rain Cloudy 5 2 3.7 6 SW
22/09:01am 16.8 NNW 22 34 1005.9 - 0.0 - - - - - - -
22/09:00am 16.9 NNW 22 31 1005.9 - 0.0 - - - - - - -
22/08:46am 17.6 N 18 29 1005.4 - 0.0 - - - - - - -
22/08:30am 17.3 N 20 29 1005.2 - 0.0 - - - - - - -
22/08:00am 17.8 N 17 29 1005.1 - 0.0 - - - - - - -
22/07:33am 17.8 N 17 27 1004.7 - 0.0 - - - - - - -
22/07:30am 17.7 N 18 26 1004.7 - 0.0 - - - - - - -
22/07:01am 17.9 N 22 32 1003.9 - 0.0 - - - - - - -
22/07:00am 17.8 N 21 29 1003.9 - 0.0 - - - - - - -
22/06:30am 17.7 NNE 19 31 1003.9 - 0.0 - - - - - - -

Other Formats:

Comma delimited format used in spreadsheet applications
http://www.bom.gov.au/fwo/IDT60701/IDT60701.95805.axf

JavaScript Object Notation format (JSON) in row-major order
http://www.bom.gov.au/fwo/IDT60701/IDT60701.95805.json